»·PEaware :: UAL982 KRNO-KPDX

UAL982 :: KRNO-KPDX

FLIGHT INFORMATION

Flight Status: Arrived
Operator:
United Airlines
More flights by this operator :: More flights under this callsign
Pilot: Anonymous 15639 (15639)
Aircraft: BOEING 737-800
(B738)
More flights by this aircraft type
Origin: KRNO Reno/Tahoe Intl
United States
Destination: KPDX Portland Intl
United States
More flights between these airports :: More routes between these airports
Route: +FMG8 FMG WNDEL SOERN TMBRS2
File this flight plan on PilotEdge
Remarks:
Altitude:
(Current/Filed)
40,000ft
Speed:
(Current/Filed)
456kts
Departed: 30-Sep-18 10:30 AM
Arrived: 30-Sep-18 11:45 AM
Distance/Time
Traveled:
386nm/1:15
Distance/Time
To Go:
Arrived

Flight Plot

Page will automatically refresh every two minutes.

Flight plan parsing failed; only flown route is shown


Map Options




Map Legend


Flown Route
Filed Route
Departure Airport
Arrival Airport
Navaid (VOR, NDB)
Fix

Horizontal Profiles

Position Reports

Time Latitude Longitude Heading Altitude Ground
Speed
30-Sep-18 09:50 39.505238 -119.773173 180 4423ft 0kts
30-Sep-18 09:51 39.505238 -119.773173 180 4423ft 0kts
30-Sep-18 09:52 39.505238 -119.773173 180 4423ft 0kts
30-Sep-18 09:53 39.505238 -119.773173 180 4423ft 0kts
30-Sep-18 09:54 39.505238 -119.773173 180 4423ft 0kts
30-Sep-18 09:55 39.505238 -119.773173 180 4423ft 0kts
30-Sep-18 09:56 39.505238 -119.773173 180 4423ft 0kts
30-Sep-18 09:57 39.505238 -119.773173 180 4423ft 0kts
30-Sep-18 09:58 39.505238 -119.773173 180 4423ft 0kts
30-Sep-18 09:59 39.505238 -119.773173 180 4423ft 0kts
30-Sep-18 10:00 39.505238 -119.773173 180 4423ft 0kts
30-Sep-18 10:01 39.505238 -119.773173 180 4423ft 0kts
30-Sep-18 10:02 39.505238 -119.773173 180 4423ft 0kts
30-Sep-18 10:03 39.505238 -119.773173 180 4423ft 0kts
30-Sep-18 10:04 39.505238 -119.773173 180 4423ft 0kts
30-Sep-18 10:05 39.505238 -119.773173 180 4423ft 0kts
30-Sep-18 10:06 39.505238 -119.773173 180 4423ft 0kts
30-Sep-18 10:07 39.505238 -119.773173 180 4423ft 0kts
30-Sep-18 10:08 39.505238 -119.773173 180 4423ft 0kts
30-Sep-18 10:09 39.505238 -119.773173 180 4423ft 0kts
30-Sep-18 10:10 39.505238 -119.773173 180 4423ft 0kts
30-Sep-18 10:11 39.505238 -119.773173 180 4423ft 0kts
30-Sep-18 10:12 39.505238 -119.773173 180 4423ft 0kts
30-Sep-18 10:13 39.505238 -119.773173 180 4423ft 0kts
30-Sep-18 10:14 39.505238 -119.773173 180 4423ft 0kts
30-Sep-18 10:15 39.505238 -119.773173 180 4423ft 0kts
30-Sep-18 10:16 39.505238 -119.773173 180 4423ft 0kts
30-Sep-18 10:17 39.505238 -119.773173 180 4423ft 0kts
30-Sep-18 10:18 39.505238 -119.773173 180 4423ft 0kts
30-Sep-18 10:19 39.505238 -119.773173 180 4423ft 0kts
30-Sep-18 10:20 39.505514 -119.773170 180 4423ft 2kts
30-Sep-18 10:21 39.505930 -119.773339 94 4423ft 0kts
30-Sep-18 10:22 39.505929 -119.773407 89 4423ft 0kts
30-Sep-18 10:23 39.505929 -119.773407 89 4423ft 0kts
30-Sep-18 10:24 39.505929 -119.773407 89 4423ft 0kts
30-Sep-18 10:25 39.505931 -119.772691 89 4423ft 0kts
30-Sep-18 10:26 39.505932 -119.772525 89 4423ft 0kts
30-Sep-18 10:27 39.505970 -119.771679 58 4423ft 0kts
30-Sep-18 10:28 39.507534 -119.771486 359 4423ft 12kts
30-Sep-18 10:29 39.510638 -119.771497 0 4423ft 9kts
30-Sep-18 10:30 39.512976 -119.771465 0 4423ft 4kts
30-Sep-18 10:31 39.514087 -119.770772 79 4423ft 11kts
30-Sep-18 10:32 39.502612 -119.769253 180 4423ft 133kts
30-Sep-18 10:33 39.455658 -119.770328 184 5913ft 190kts
30-Sep-18 10:34 39.402043 -119.748113 106 8233ft 232kts
30-Sep-18 10:35 39.448284 -119.688590 17 10016ft 309kts
30-Sep-18 10:36 39.538033 -119.672458 342 12321ft 341kts
30-Sep-18 10:37 39.622945 -119.725846 324 15581ft 348kts
30-Sep-18 10:38 39.707688 -119.790778 324 18316ft 361kts
30-Sep-18 10:39 39.795105 -119.857796 323 20881ft 372kts
30-Sep-18 10:40 39.885415 -119.927028 323 23543ft 384kts
30-Sep-18 10:41 39.978798 -119.998583 322 25944ft 396kts
30-Sep-18 10:42 40.074624 -120.071983 322 28097ft 407kts
30-Sep-18 10:43 40.167241 -120.142850 322 30155ft 410kts
30-Sep-18 10:44 40.264001 -120.216826 321 32567ft 400kts
30-Sep-18 10:45 40.358741 -120.289311 321 34650ft 392kts
30-Sep-18 10:46 40.456723 -120.352608 328 36315ft 397kts
30-Sep-18 10:47 40.556025 -120.411081 327 37760ft 395kts
30-Sep-18 10:48 40.655133 -120.469538 327 38970ft 395kts
30-Sep-18 10:49 40.754918 -120.528387 327 40034ft 396kts
30-Sep-18 10:50 40.858537 -120.589522 328 40092ft 424kts
30-Sep-18 10:51 40.968512 -120.654281 328 40074ft 440kts
30-Sep-18 10:52 41.077189 -120.718344 329 40083ft 423kts
30-Sep-18 10:53 41.169040 -120.772442 330 40107ft 421kts
30-Sep-18 10:54 41.264877 -120.828909 330 40082ft 423kts
30-Sep-18 10:55 41.371014 -120.891433 330 40076ft 424kts
30-Sep-18 10:56 41.477409 -120.954092 330 40074ft 424kts
30-Sep-18 10:57 41.584488 -121.017116 331 40056ft 422kts
30-Sep-18 10:58 41.691100 -121.079864 332 40054ft 422kts
30-Sep-18 10:59 41.798007 -121.142746 333 40055ft 421kts
30-Sep-18 11:00 41.905157 -121.205783 334 40060ft 422kts
30-Sep-18 11:01 42.012412 -121.268849 334 40053ft 422kts
30-Sep-18 11:02 42.118129 -121.331005 334 40069ft 422kts
30-Sep-18 11:03 42.209033 -121.384434 334 40040ft 422kts
30-Sep-18 11:04 42.314039 -121.446151 334 40039ft 423kts
30-Sep-18 11:05 42.421160 -121.509077 334 40042ft 423kts
30-Sep-18 11:06 42.528630 -121.572195 334 40035ft 422kts
30-Sep-18 11:07 42.635358 -121.634852 334 40070ft 422kts
30-Sep-18 11:08 42.735509 -121.693712 334 40031ft 423kts
30-Sep-18 11:09 42.836720 -121.753133 334 40001ft 424kts
30-Sep-18 11:10 42.943910 -121.816062 335 40045ft 417kts
30-Sep-18 11:11 43.047063 -121.883535 331 40067ft 414kts
30-Sep-18 11:12 43.143191 -121.958696 332 40034ft 415kts
30-Sep-18 11:13 43.229320 -122.025679 332 40021ft 414kts
30-Sep-18 11:14 43.316923 -122.094008 331 39963ft 415kts
30-Sep-18 11:15 43.416569 -122.171987 332 39980ft 414kts
30-Sep-18 11:16 43.516377 -122.250364 332 40004ft 414kts
30-Sep-18 11:17 43.614329 -122.327313 332 39776ft 400kts
30-Sep-18 11:18 43.709539 -122.402353 332 38837ft 412kts
30-Sep-18 11:19 43.806447 -122.479047 332 37900ft 411kts
30-Sep-18 11:20 43.901995 -122.554954 332 36964ft 411kts
30-Sep-18 11:21 44.001916 -122.634647 332 34427ft 419kts
30-Sep-18 11:22 44.092396 -122.707139 330 31496ft 413kts
30-Sep-18 11:23 44.183086 -122.745754 352 29326ft 399kts
30-Sep-18 11:24 44.262490 -122.742053 0 27673ft 385kts
30-Sep-18 11:25 44.367085 -122.731757 0 25568ft 394kts
30-Sep-18 11:26 44.490565 -122.719467 0 22969ft 381kts
30-Sep-18 11:27 44.576692 -122.710841 0 21213ft 365kts
30-Sep-18 11:28 44.691416 -122.699315 0 18914ft 348kts
30-Sep-18 11:29 44.770819 -122.691346 0 17292ft 341kts
30-Sep-18 11:30 44.863930 -122.681961 0 15471ft 333kts
30-Sep-18 11:31 44.953694 -122.672894 0 13732ft 317kts
30-Sep-18 11:32 45.041329 -122.664060 1 12070ft 316kts
30-Sep-18 11:33 45.126082 -122.655408 1 10807ft 296kts
30-Sep-18 11:34 45.206328 -122.647225 1 9632ft 287kts
30-Sep-18 11:35 45.279155 -122.674439 334 8637ft 269kts
30-Sep-18 11:36 45.346792 -122.716014 335 7376ft 272kts
30-Sep-18 11:37 45.415316 -122.761779 334 6314ft 266kts
30-Sep-18 11:38 45.482400 -122.805359 335 5235ft 266kts
30-Sep-18 11:39 45.549088 -122.848676 335 4344ft 259kts
30-Sep-18 11:40 45.612179 -122.889671 335 3598ft 242kts
30-Sep-18 11:41 45.672122 -122.919668 17 2988ft 215kts
30-Sep-18 11:42 45.685030 -122.857193 116 2980ft 166kts
30-Sep-18 11:43 45.664659 -122.800592 119 2842ft 157kts
30-Sep-18 11:44 45.644009 -122.747296 119 2032ft 149kts
30-Sep-18 11:45 45.624308 -122.696462 118 1238ft 141kts
30-Sep-18 11:46 45.605391 -122.647977 119 402ft 138kts
30-Sep-18 11:47 45.588530 -122.604452 118 37ft 35kts
30-Sep-18 11:48 45.588200 -122.598380 101 37ft 9kts
30-Sep-18 11:49 45.588485 -122.596962 6 37ft 1kts
30-Sep-18 11:50 45.588611 -122.596940 6 37ft 0kts
30-Sep-18 11:51 45.588611 -122.596940 6 37ft 0kts
30-Sep-18 11:52 45.588611 -122.596940 6 37ft 0kts

Navigation Log

Ident Type
Flight plan parsing failed, navigation log unavailable